Time;durP1;ratioP1;P1;durP2;ratioP2;P2;SDS_P1;SDS_P2;PMS_P1;PMS_P2;Temp;Humidity;BMP_temperature;BMP_pressure;BME280_temperature;BME280_humidity;BME280_pressure;Samples;Min_cycle;Max_cycle;Signal;HPM_P1;HPM_P2
2022/08/29 00:00:23;;;;;;;14.23;4.75;;;16.00;71.10;;;;;;4993354;28;20060;-72
2022/08/29 00:02:51;;;;;;;9.70;3.92;;;16.00;71.20;;;;;;4992288;28;20151;-72
2022/08/29 00:05:21;;;;;;;8.93;3.97;;;16.00;71.60;;;;;;5022852;28;20088;-72
2022/08/29 00:07:47;;;;;;;11.15;4.28;;;16.00;71.60;;;;;;5012097;28;20558;-73
2022/08/29 00:10:13;;;;;;;10.85;4.20;;;15.90;71.20;;;;;;5021859;28;20132;-73
2022/08/29 00:12:38;;;;;;;11.23;4.18;;;15.90;71.40;;;;;;4994134;28;20426;-72
2022/08/29 00:15:05;;;;;;;11.80;4.25;;;15.90;71.60;;;;;;5009854;28;20099;-72
2022/08/29 00:17:31;;;;;;;16.52;4.47;;;15.80;71.50;;;;;;5004108;28;20042;-72
2022/08/29 00:19:57;;;;;;;9.52;4.05;;;15.80;71.80;;;;;;4992215;28;20049;-73
2022/08/29 00:22:23;;;;;;;15.00;4.55;;;15.80;71.40;;;;;;5009562;28;20060;-72
2022/08/29 00:24:49;;;;;;;11.48;4.10;;;15.90;71.20;;;;;;5019394;28;20042;-73
2022/08/29 00:27:14;;;;;;;11.35;4.55;;;15.80;72.00;;;;;;5003688;28;20080;-73
2022/08/29 00:29:40;;;;;;;10.35;3.70;;;15.80;72.00;;;;;;5023482;28;20525;-73
2022/08/29 00:32:06;;;;;;;9.32;3.80;;;15.70;72.20;;;;;;5014506;28;20107;-72
2022/08/29 00:34:32;;;;;;;10.63;4.18;;;15.70;72.30;;;;;;5016392;28;20076;-73
2022/08/29 00:36:58;;;;;;;11.23;4.10;;;15.70;72.50;;;;;;5023388;28;20514;-72
2022/08/29 00:39:24;;;;;;;9.90;4.22;;;15.70;72.80;;;;;;5040074;28;20037;-72
2022/08/29 00:41:49;;;;;;;13.80;4.75;;;15.70;72.20;;;;;;5009954;28;20335;-72
2022/08/29 00:44:15;;;;;;;10.55;4.03;;;15.70;72.90;;;;;;4975431;28;20049;-72
2022/08/29 00:46:41;;;;;;;12.32;3.90;;;15.80;72.20;;;;;;4992379;28;20460;-71
2022/08/29 00:49:11;;;;;;;9.10;3.60;;;15.80;72.10;;;;;;5018910;28;20045;-72
2022/08/29 00:51:37;;;;;;;14.60;4.28;;;15.80;72.70;;;;;;4997761;28;20088;-72
2022/08/29 00:54:05;;;;;;;13.20;3.88;;;15.70;72.90;;;;;;5014346;28;20101;-72
2022/08/29 00:56:31;;;;;;;12.10;4.22;;;15.70;73.10;;;;;;5013808;28;20049;-73
2022/08/29 00:59:02;;;;;;;10.00;4.63;;;15.70;73.30;;;;;;5003220;28;20176;-72
2022/08/29 01:01:28;;;;;;;11.95;3.80;;;15.80;73.10;;;;;;5005480;28;20049;-72
2022/08/29 01:03:54;;;;;;;10.35;3.78;;;15.70;73.40;;;;;;5028182;28;20053;-73
2022/08/29 01:06:20;;;;;;;10.20;3.80;;;15.70;73.20;;;;;;5028627;28;20111;-72
2022/08/29 01:08:46;;;;;;;12.35;4.22;;;15.70;73.70;;;;;;5010909;28;20132;-72
2022/08/29 01:13:57;;;;;;;12.35;4.55;;;15.70;73.60;;;;;;5016670;28;20129;-72
2022/08/29 01:16:26;;;;;;;8.93;4.38;;;15.70;73.30;;;;;;5008456;28;20073;-72
2022/08/29 01:18:54;;;;;;;14.45;4.80;;;15.70;73.20;;;;;;4998648;28;20359;-72
2022/08/29 01:21:39;;;;;;;10.23;3.97;;;15.70;73.30;;;;;;4992621;28;20144;-71
2022/08/29 01:24:30;;;;;;;14.00;4.18;;;15.60;73.40;;;;;;5024570;28;20045;-72
2022/08/29 01:26:56;;;;;;;11.75;4.25;;;15.60;73.90;;;;;;5002732;28;20572;-72
2022/08/29 01:29:21;;;;;;;10.30;3.83;;;15.60;73.90;;;;;;5023370;28;20120;-72
2022/08/29 01:31:48;;;;;;;11.13;3.80;;;15.60;73.40;;;;;;5013436;28;20084;-72
2022/08/29 01:34:14;;;;;;;12.60;3.85;;;15.60;73.70;;;;;;5013871;28;20152;-72
2022/08/29 01:36:46;;;;;;;9.43;4.28;;;15.60;73.60;;;;;;5020711;28;20056;-72
2022/08/29 01:39:12;;;;;;;10.38;3.70;;;15.60;73.90;;;;;;5020589;28;20045;-72
2022/08/29 01:41:38;;;;;;;12.65;3.78;;;15.50;75.10;;;;;;5003687;28;20494;-72
2022/08/29 01:44:12;;;;;;;10.85;3.85;;;15.60;74.20;;;;;;5012983;28;20049;-73
2022/08/29 01:46:38;;;;;;;12.27;4.97;;;15.50;75.10;;;;;;5015533;28;20060;-73
2022/08/29 01:49:04;;;;;;;11.68;3.80;;;15.40;75.00;;;;;;5003557;28;20045;-72
2022/08/29 01:51:31;;;;;;;9.45;3.80;;;15.40;75.10;;;;;;5001407;28;20045;-72
2022/08/29 01:53:56;;;;;;;11.52;3.80;;;15.40;75.40;;;;;;4999142;28;20452;-73
2022/08/29 01:56:25;;;;;;;11.77;4.10;;;15.40;75.50;;;;;;5006935;28;20056;-72
2022/08/29 01:58:51;;;;;;;11.32;4.00;;;15.40;75.40;;;;;;5041034;28;20057;-71
2022/08/29 02:01:19;;;;;;;11.98;3.75;;;15.50;75.50;;;;;;5023194;28;20094;-72
2022/08/29 02:03:45;;;;;;;12.88;4.03;;;15.50;74.90;;;;;;5016676;28;20060;-72
2022/08/29 02:06:11;;;;;;;12.10;3.95;;;15.50;75.80;;;;;;5023172;28;20049;-72
2022/08/29 02:08:37;;;;;;;12.18;4.50;;;15.40;75.50;;;;;;5018204;28;20045;-72
2022/08/29 02:11:03;;;;;;;8.82;3.88;;;15.50;75.60;;;;;;4997880;28;20061;-72
2022/08/29 02:13:29;;;;;;;11.65;3.72;;;15.50;75.70;;;;;;5005523;28;20053;-72
2022/08/29 02:15:55;;;;;;;12.55;4.15;;;15.40;76.00;;;;;;5020183;28;20049;-72
2022/08/29 02:18:20;;;;;;;9.48;4.22;;;15.40;76.10;;;;;;5017952;28;20107;-72
2022/08/29 02:20:46;;;;;;;11.38;3.83;;;15.40;75.50;;;;;;5021833;28;20057;-72
2022/08/29 02:23:12;;;;;;;9.60;3.92;;;15.40;75.80;;;;;;5019172;28;20049;-72
2022/08/29 02:25:41;;;;;;;11.38;4.00;;;15.30;76.20;;;;;;5008231;28;20207;-72
2022/08/29 02:28:13;;;;;;;8.55;3.55;;;15.30;76.30;;;;;;5006498;28;20786;-72
2022/08/29 02:30:44;;;;;;;9.57;3.85;;;15.30;76.40;;;;;;5017653;28;20049;-73
2022/08/29 02:33:12;;;;;;;15.68;5.22;;;15.30;76.10;;;;;;5026551;28;20115;-72
2022/08/29 02:35:38;;;;;;;12.85;4.10;;;15.30;76.10;;;;;;5024596;28;20146;-71
2022/08/29 02:38:04;;;;;;;12.75;4.45;;;15.30;76.40;;;;;;5015612;28;20555;-71
2022/08/29 02:40:30;;;;;;;13.18;4.10;;;15.20;76.60;;;;;;5026491;28;20049;-71
2022/08/29 02:42:56;;;;;;;12.65;4.18;;;15.30;76.20;;;;;;5024539;28;20083;-72
2022/08/29 02:45:22;;;;;;;11.05;4.07;;;15.10;77.30;;;;;;5013897;28;20559;-72
2022/08/29 02:47:48;;;;;;;10.23;3.97;;;15.20;77.10;;;;;;5030399;28;20057;-72
2022/08/29 02:50:14;;;;;;;14.93;4.88;;;15.20;76.80;;;;;;4998901;28;20542;-72
2022/08/29 02:52:40;;;;;;;7.65;3.55;;;15.30;76.50;;;;;;5020035;28;20054;-72
2022/08/29 02:55:07;;;;;;;11.02;4.35;;;15.30;76.10;;;;;;4993279;28;20484;-71
2022/08/29 02:57:33;;;;;;;11.75;4.30;;;15.30;76.70;;;;;;5012962;28;20053;-72
2022/08/29 02:59:58;;;;;;;9.80;3.90;;;15.10;77.40;;;;;;5008580;28;20506;-71
2022/08/29 03:02:24;;;;;;;9.02;3.70;;;15.00;77.90;;;;;;5018101;28;20046;-71
2022/08/29 03:04:50;;;;;;;10.23;4.03;;;14.90;78.50;;;;;;5002673;28;20057;-72
2022/08/29 03:07:16;;;;;;;11.38;3.75;;;15.00;78.30;;;;;;5013295;28;20509;-73
2022/08/29 03:09:41;;;;;;;9.45;4.20;;;15.00;78.00;;;;;;5014084;28;20042;-72
2022/08/29 03:12:07;;;;;;;14.95;3.92;;;15.10;77.40;;;;;;5017605;28;20151;-72
2022/08/29 03:14:33;;;;;;;9.50;3.67;;;15.10;77.70;;;;;;5027426;28;20124;-72
2022/08/29 03:16:59;;;;;;;11.98;3.72;;;15.00;78.00;;;;;;5013336;28;20487;-72
2022/08/29 03:19:25;;;;;;;11.07;4.00;;;15.00;77.90;;;;;;5032424;28;20053;-72
2022/08/29 03:21:51;;;;;;;9.48;3.90;;;15.10;77.90;;;;;;5021083;28;20041;-72
2022/08/29 03:24:16;;;;;;;11.90;4.60;;;15.10;77.70;;;;;;5008710;28;20126;-72
2022/08/29 03:26:42;;;;;;;14.05;4.50;;;15.00;78.30;;;;;;5019363;28;20467;-72
2022/08/29 03:29:08;;;;;;;14.57;4.32;;;15.00;78.70;;;;;;5010079;28;20045;-72
2022/08/29 03:31:34;;;;;;;11.25;3.88;;;14.90;78.60;;;;;;5019672;28;22591;-71
2022/08/29 03:34:00;;;;;;;13.00;3.40;;;14.90;79.20;;;;;;4991641;28;20129;-71
2022/08/29 03:36:25;;;;;;;11.57;3.67;;;15.00;78.60;;;;;;5013144;28;20124;-71
2022/08/29 03:38:51;;;;;;;13.20;3.88;;;15.00;78.70;;;;;;5020434;28;20468;-71
2022/08/29 03:41:25;;;;;;;14.18;4.28;;;15.00;78.40;;;;;;5016401;28;20125;-71
2022/08/29 03:43:51;;;;;;;10.48;3.90;;;15.00;78.90;;;;;;5010658;28;20375;-72
2022/08/29 03:46:17;;;;;;;15.25;3.53;;;14.80;79.80;;;;;;5009971;28;20041;-72
2022/08/29 03:48:43;;;;;;;12.02;3.78;;;14.80;80.10;;;;;;4988732;28;20371;-72
2022/08/29 03:51:09;;;;;;;11.27;4.15;;;14.80;80.00;;;;;;5013366;28;20159;-72
2022/08/29 03:53:35;;;;;;;11.70;4.35;;;14.80;79.80;;;;;;5006875;28;20489;-72
2022/08/29 03:56:01;;;;;;;12.60;3.72;;;14.90;79.70;;;;;;5026605;28;20107;-72
2022/08/29 03:58:27;;;;;;;8.57;3.75;;;14.90;78.90;;;;;;5012702;28;20084;-72
2022/08/29 04:00:53;;;;;;;14.90;4.10;;;14.90;79.50;;;;;;4997744;28;20463;-71
2022/08/29 04:03:19;;;;;;;9.63;3.78;;;15.00;79.40;;;;;;5009169;28;20424;-72
2022/08/29 04:05:44;;;;;;;9.38;3.65;;;15.00;79.10;;;;;;5021254;28;20475;-72
2022/08/29 04:08:10;;;;;;;12.70;4.25;;;15.10;79.00;;;;;;5028543;28;20126;-73
2022/08/29 04:10:37;;;;;;;10.13;3.65;;;15.10;79.20;;;;;;5009435;28;20053;-72
2022/08/29 04:13:03;;;;;;;12.20;4.45;;;15.00;79.60;;;;;;5023655;28;20054;-72
2022/08/29 04:15:31;;;;;;;9.63;3.72;;;15.00;80.20;;;;;;4992212;28;20071;-73
2022/08/29 04:17:58;;;;;;;9.43;4.20;;;15.00;80.30;;;;;;5011029;28;20379;-72
2022/08/29 04:20:25;;;;;;;11.57;4.00;;;14.90;80.70;;;;;;5013957;28;20054;-72
2022/08/29 04:22:52;;;;;;;13.25;3.95;;;14.80;80.90;;;;;;5021488;28;20506;-72
2022/08/29 04:25:18;;;;;;;13.13;4.00;;;14.90;81.10;;;;;;5019792;28;20090;-71
2022/08/29 04:27:44;;;;;;;16.92;3.63;;;14.90;80.90;;;;;;5039117;28;20535;-71
2022/08/29 04:30:15;;;;;;;11.38;3.40;;;14.90;81.20;;;;;;4996056;28;20056;-72
2022/08/29 04:32:41;;;;;;;15.23;4.05;;;14.90;81.00;;;;;;5010938;28;20111;-72
2022/08/29 04:35:07;;;;;;;11.02;4.07;;;15.00;80.80;;;;;;5019918;28;20559;-72
2022/08/29 04:37:32;;;;;;;10.75;3.65;;;15.00;80.90;;;;;;5006169;28;20049;-72
2022/08/29 04:39:58;;;;;;;11.40;3.97;;;15.00;81.00;;;;;;5018487;28;20045;-73
2022/08/29 04:42:24;;;;;;;10.77;3.90;;;15.00;81.10;;;;;;5019534;28;20041;-72
2022/08/29 04:44:50;;;;;;;13.73;3.92;;;15.10;80.70;;;;;;5022542;28;20085;-72
2022/08/29 04:47:16;;;;;;;11.45;3.30;;;15.10;81.20;;;;;;5026752;28;20095;-72
2022/08/29 04:49:42;;;;;;;11.15;3.55;;;15.20;81.00;;;;;;5020716;28;20045;-71
2022/08/29 04:52:08;;;;;;;14.18;3.97;;;15.20;80.60;;;;;;5020288;28;20049;-72
2022/08/29 04:54:34;;;;;;;12.65;3.75;;;15.30;80.80;;;;;;5048734;28;20124;-72
2022/08/29 04:57:04;;;;;;;12.43;3.83;;;15.20;81.00;;;;;;5007033;28;20494;-72
2022/08/29 04:59:29;;;;;;;9.93;3.80;;;15.10;81.20;;;;;;5018524;28;20036;-72
2022/08/29 05:01:55;;;;;;;12.73;3.70;;;15.20;81.20;;;;;;4999050;28;20087;-71
2022/08/29 05:04:21;;;;;;;11.10;3.67;;;15.10;81.40;;;;;;5045721;28;20053;-72
2022/08/29 05:06:47;;;;;;;13.40;4.00;;;15.10;81.90;;;;;;5010741;28;20111;-72
2022/08/29 05:09:13;;;;;;;14.20;4.63;;;15.10;82.10;;;;;;5039605;28;20102;-72
2022/08/29 05:11:39;;;;;;;9.80;3.40;;;15.10;82.20;;;;;;5023660;28;20619;-72
2022/08/29 05:14:04;;;;;;;13.32;4.45;;;15.00;82.10;;;;;;5011332;28;20440;-72
2022/08/29 05:16:33;;;;;;;13.93;3.88;;;15.10;82.50;;;;;;5011283;28;20076;-72
2022/08/29 05:18:59;;;;;;;19.23;4.38;;;15.10;82.40;;;;;;5006553;28;20049;-71
2022/08/29 05:21:27;;;;;;;14.23;3.63;;;15.10;82.40;;;;;;5010297;28;20045;-72
2022/08/29 05:23:55;;;;;;;12.10;3.50;;;15.10;82.60;;;;;;4998635;28;20077;-72
2022/08/29 05:26:21;;;;;;;14.50;3.38;;;15.10;82.90;;;;;;5027380;28;20448;-72
2022/08/29 05:28:46;;;;;;;14.20;4.32;;;15.10;83.20;;;;;;5008662;28;20050;-71
2022/08/29 05:31:13;;;;;;;14.98;3.72;;;15.10;83.30;;;;;;5027337;28;20471;-71
2022/08/29 05:33:39;;;;;;;10.45;3.80;;;15.20;83.30;;;;;;5019570;28;20486;-72
2022/08/29 05:36:05;;;;;;;8.10;3.60;;;15.10;83.40;;;;;;5023296;28;20123;-73
2022/08/29 05:38:31;;;;;;;14.77;4.13;;;15.20;82.70;;;;;;5017261;28;20435;-72
2022/08/29 05:40:57;;;;;;;16.17;4.07;;;15.30;82.40;;;;;;5012967;28;20048;-71
2022/08/29 05:43:23;;;;;;;11.60;3.47;;;15.30;82.90;;;;;;5011544;28;20053;-72
2022/08/29 05:45:49;;;;;;;10.77;4.07;;;15.30;83.20;;;;;;5001870;28;20151;-71
2022/08/29 05:48:17;;;;;;;13.88;3.67;;;15.30;83.60;;;;;;5024622;28;20419;-72
2022/08/29 05:50:43;;;;;;;9.30;3.70;;;15.30;83.60;;;;;;4990146;28;20048;-72
2022/08/29 05:53:10;;;;;;;9.73;3.67;;;15.20;84.00;;;;;;5023795;28;20356;-74
2022/08/29 05:55:40;;;;;;;14.10;5.25;;;15.20;84.50;;;;;;5023847;28;20854;-72
2022/08/29 05:58:05;;;;;;;16.27;4.30;;;15.30;84.10;;;;;;5020966;28;20487;-72
2022/08/29 06:00:31;;;;;;;13.70;4.35;;;15.40;83.70;;;;;;5023088;28;20064;-72
2022/08/29 06:02:57;;;;;;;12.00;4.00;;;15.50;83.40;;;;;;5021325;28;20057;-72
2022/08/29 06:05:22;;;;;;;9.13;3.50;;;15.60;83.10;;;;;;5018694;28;20096;-72
2022/08/29 06:07:48;;;;;;;10.82;3.80;;;15.50;83.30;;;;;;5026669;28;20135;-72
2022/08/29 06:10:14;;;;;;;13.40;3.70;;;15.70;82.70;;;;;;5028022;28;20049;-72
2022/08/29 06:12:41;;;;;;;11.77;3.55;;;15.80;82.60;;;;;;5047199;28;20183;-72
2022/08/29 06:15:09;;;;;;;9.95;3.95;;;15.70;83.10;;;;;;5011781;28;20099;-73
2022/08/29 06:17:37;;;;;;;13.48;3.88;;;15.70;83.40;;;;;;5008841;28;20042;-72
2022/08/29 06:20:08;;;;;;;14.88;4.85;;;15.70;83.40;;;;;;4993262;28;20068;-72
2022/08/29 06:22:34;;;;;;;10.02;3.78;;;15.60;83.70;;;;;;5029476;28;20054;-72
2022/08/29 06:25:00;;;;;;;16.75;3.90;;;15.70;83.50;;;;;;5030125;28;20670;-72
2022/08/29 06:27:25;;;;;;;12.13;3.58;;;15.70;83.90;;;;;;5019600;28;20056;-73
2022/08/29 06:29:51;;;;;;;9.65;3.50;;;15.70;83.90;;;;;;5016012;28;20048;-73
2022/08/29 06:32:17;;;;;;;10.88;3.80;;;15.80;83.50;;;;;;5024549;28;20106;-73
2022/08/29 06:34:42;;;;;;;13.65;4.07;;;15.80;83.40;;;;;;4979499;28;20049;-72
2022/08/29 06:37:08;;;;;;;14.23;4.57;;;15.90;83.80;;;;;;5029261;28;20091;-72
2022/08/29 06:39:34;;;;;;;13.35;3.72;;;15.80;84.20;;;;;;5012262;28;20363;-69
2022/08/29 06:42:00;;;;;;;17.05;4.30;;;15.90;84.40;;;;;;5022159;28;20513;-70
2022/08/29 06:44:25;;;;;;;9.80;3.80;;;15.90;83.60;;;;;;5012473;28;20049;-69
2022/08/29 06:46:51;;;;;;;12.18;4.38;;;16.00;83.20;;;;;;5024608;28;20042;-72
2022/08/29 06:49:20;;;;;;;13.85;3.80;;;16.00;83.70;;;;;;5023350;28;20141;-69
2022/08/29 06:51:48;;;;;;;14.07;3.80;;;16.00;83.90;;;;;;5018292;28;20049;-70
2022/08/29 06:54:14;;;;;;;17.80;4.93;;;16.10;83.50;;;;;;5023321;28;20115;-69
2022/08/29 06:56:40;;;;;;;13.27;4.78;;;16.10;84.50;;;;;;4999680;28;20058;-68
2022/08/29 06:59:06;;;;;;;14.73;4.10;;;16.10;84.70;;;;;;5004974;28;20052;-70
2022/08/29 07:01:33;;;;;;;18.90;4.55;;;16.10;84.60;;;;;;5027695;28;20049;-67
2022/08/29 07:03:59;;;;;;;12.90;5.15;;;16.00;85.20;;;;;;5009774;28;20048;-68
2022/08/29 07:06:25;;;;;;;16.05;4.63;;;16.10;85.10;;;;;;5024527;28;20117;-68
2022/08/29 07:08:51;;;;;;;14.32;4.80;;;16.10;85.20;;;;;;5005333;28;20080;-68
2022/08/29 07:11:17;;;;;;;17.67;5.22;;;16.10;85.40;;;;;;5011173;28;20134;-67
2022/08/29 07:13:43;;;;;;;18.73;4.72;;;16.10;85.60;;;;;;5020516;28;20434;-69
2022/08/29 07:16:10;;;;;;;16.42;5.60;;;16.00;85.90;;;;;;4994214;28;20049;-68
2022/08/29 07:18:36;;;;;;;14.80;4.88;;;16.10;86.00;;;;;;5023267;28;20148;-69
2022/08/29 07:21:13;;;;;;;15.15;5.07;;;16.10;85.50;;;;;;5020457;28;20065;-74
2022/08/29 07:23:40;;;;;;;14.52;4.75;;;16.20;85.30;;;;;;4996874;28;20060;-75
2022/08/29 07:26:07;;;;;;;15.43;4.70;;;16.20;85.60;;;;;;5017925;28;20045;-73
2022/08/29 07:28:34;;;;;;;11.75;4.97;;;16.30;85.30;;;;;;5010322;28;20045;-73
2022/08/29 07:31:01;;;;;;;17.58;5.05;;;16.40;85.60;;;;;;5039687;28;20124;-75
2022/08/29 07:33:26;;;;;;;15.90;5.20;;;16.40;85.40;;;;;;4998034;28;20045;-74
2022/08/29 07:35:53;;;;;;;13.48;5.28;;;16.40;85.80;;;;;;5017030;28;20112;-76
2022/08/29 07:38:20;;;;;;;16.48;5.70;;;16.40;86.20;;;;;;5026446;28;20046;-74
2022/08/29 07:40:45;;;;;;;18.58;5.25;;;16.40;86.20;;;;;;5005640;28;20238;-75
2022/08/29 07:43:11;;;;;;;13.43;5.40;;;16.40;86.20;;;;;;5013202;28;20045;-74
2022/08/29 07:45:40;;;;;;;16.50;5.95;;;16.50;85.60;;;;;;5044320;28;20387;-75
2022/08/29 07:48:06;;;;;;;18.48;6.80;;;16.60;86.20;;;;;;5031629;28;20467;-74
2022/08/29 07:50:32;;;;;;;15.73;6.28;;;16.50;87.00;;;;;;5013661;28;20518;-74
2022/08/29 07:52:58;;;;;;;19.80;6.53;;;16.60;86.40;;;;;;5002483;28;20087;-74
2022/08/29 07:55:24;;;;;;;18.42;6.47;;;16.70;85.80;;;;;;5044196;28;20084;-74
2022/08/29 07:57:51;;;;;;;16.65;5.47;;;16.80;86.10;;;;;;5021268;28;20472;-74
2022/08/29 08:00:17;;;;;;;13.98;5.95;;;16.80;85.50;;;;;;5013083;28;20051;-74
2022/08/29 08:02:43;;;;;;;12.85;5.93;;;16.70;86.30;;;;;;5022135;28;20679;-74
2022/08/29 08:05:09;;;;;;;14.50;6.28;;;16.70;86.30;;;;;;5015805;28;20041;-75
2022/08/29 08:07:35;;;;;;;16.02;6.28;;;16.80;86.10;;;;;;5028014;28;20482;-74
2022/08/29 08:10:02;;;;;;;17.13;6.82;;;16.90;85.50;;;;;;5020182;28;20376;-74
2022/08/29 08:12:28;;;;;;;15.60;5.28;;;16.90;85.20;;;;;;4999821;28;20379;-73
2022/08/29 08:14:54;;;;;;;16.55;6.22;;;16.90;85.10;;;;;;5009833;28;20046;-75
2022/08/29 08:17:20;;;;;;;13.63;6.15;;;16.90;85.50;;;;;;5016670;28;20060;-73
2022/08/29 08:19:45;;;;;;;15.73;6.70;;;16.90;85.70;;;;;;5032291;28;20084;-72
2022/08/29 08:22:11;;;;;;;14.77;6.30;;;16.90;85.50;;;;;;5016838;28;20053;-76
2022/08/29 08:24:37;;;;;;;19.83;6.00;;;16.80;85.50;;;;;;5025530;28;20106;-73
2022/08/29 08:27:03;;;;;;;20.15;7.25;;;16.90;85.80;;;;;;5023506;28;20049;-75
2022/08/29 08:29:29;;;;;;;19.60;6.22;;;17.00;86.10;;;;;;5008601;28;20471;-69
2022/08/29 08:31:58;;;;;;;14.45;5.95;;;17.10;85.30;;;;;;5007705;28;20115;-68
2022/08/29 08:34:24;;;;;;;18.92;6.25;;;17.20;85.10;;;;;;5021950;28;20045;-69
2022/08/29 08:36:50;;;;;;;19.73;6.78;;;17.20;84.40;;;;;;5018341;28;20052;-68
2022/08/29 08:39:16;;;;;;;20.88;7.00;;;17.20;84.90;;;;;;5005285;28;20045;-69
2022/08/29 08:41:55;;;;;;;23.50;7.97;;;17.30;85.10;;;;;;5011088;28;20042;-68
2022/08/29 08:44:21;;;;;;;17.23;6.97;;;17.30;85.30;;;;;;5021139;28;20038;-68
2022/08/29 08:46:52;;;;;;;19.13;7.03;;;17.40;85.30;;;;;;5018746;28;20076;-68
2022/08/29 08:49:29;;;;;;;22.17;7.80;;;17.40;85.00;;;;;;5010033;28;20060;-67
2022/08/29 08:52:01;;;;;;;19.30;7.07;;;17.50;84.90;;;;;;5023963;28;20118;-67
2022/08/29 08:54:28;;;;;;;18.48;6.88;;;17.60;84.20;;;;;;5000424;28;20530;-68
2022/08/29 08:57:08;;;;;;;17.13;6.78;;;17.60;84.60;;;;;;5022415;28;20764;-69
2022/08/29 08:59:41;;;;;;;22.60;7.32;;;17.70;84.30;;;;;;5028665;28;20642;-67
2022/08/29 09:02:47;;;;;;;17.25;7.60;;;17.70;83.60;;;;;;5012321;28;20375;-71
2022/08/29 09:05:41;;;;;;;21.65;6.80;;;17.70;84.00;;;;;;5022774;28;20042;-71
2022/08/29 09:08:41;;;;;;;19.98;7.95;;;17.80;84.00;;;;;;5042826;28;20927;-73
2022/08/29 09:11:40;;;;;;;16.27;6.47;;;17.90;83.40;;;;;;5059063;28;20479;-71
2022/08/29 09:14:25;;;;;;;19.50;6.70;;;18.00;83.00;;;;;;5011585;28;20432;-72
2022/08/29 09:16:53;;;;;;;19.92;6.38;;;18.10;83.30;;;;;;5022677;28;20145;-73
2022/08/29 09:19:19;;;;;;;17.00;6.33;;;18.00;82.60;;;;;;4991283;28;20356;-73
2022/08/29 09:21:51;;;;;;;18.65;6.75;;;18.10;82.90;;;;;;5001885;28;20053;-72
2022/08/29 09:24:45;;;;;;;19.45;6.30;;;18.10;83.10;;;;;;5019189;28;20046;-73
2022/08/29 09:27:17;;;;;;;18.23;6.03;;;18.30;82.80;;;;;;4970253;28;20148;-74
2022/08/29 09:29:45;;;;;;;19.38;7.18;;;18.40;82.60;;;;;;5010867;28;20052;-73
2022/08/29 09:32:12;;;;;;;18.48;6.00;;;18.40;82.20;;;;;;5058578;28;20446;-73
2022/08/29 09:34:43;;;;;;;16.63;6.57;;;18.40;82.20;;;;;;4997344;28;20160;-73
2022/08/29 09:37:30;;;;;;;19.00;5.82;;;18.40;83.00;;;;;;5004302;28;20287;-72
2022/08/29 09:40:11;;;;;;;17.90;5.47;;;18.50;81.70;;;;;;5009220;28;20167;-73
2022/08/29 09:42:40;;;;;;;16.02;6.30;;;18.40;82.30;;;;;;5005576;28;20108;-73
2022/08/29 09:45:25;;;;;;;21.05;6.00;;;18.50;82.40;;;;;;5010991;28;20121;-73
2022/08/29 09:48:16;;;;;;;18.83;5.57;;;18.70;81.80;;;;;;5001357;28;20085;-72
2022/08/29 09:50:43;;;;;;;15.05;5.63;;;18.90;81.20;;;;;;5020214;28;20451;-73
2022/08/29 09:53:12;;;;;;;16.80;5.80;;;19.10;79.70;;;;;;5003530;28;20053;-72
2022/08/29 09:55:46;;;;;;;15.10;5.38;;;19.30;79.40;;;;;;5037499;28;20107;-72
2022/08/29 09:58:14;;;;;;;17.70;5.30;;;19.40;80.10;;;;;;5040976;28;20049;-72
2022/08/29 10:01:10;;;;;;;14.82;5.00;;;19.50;78.80;;;;;;5028453;28;20103;-73
2022/08/29 10:04:04;;;;;;;15.55;5.50;;;19.60;78.30;;;;;;5011545;28;20045;-72
2022/08/29 10:06:38;;;;;;;19.30;5.82;;;19.70;77.90;;;;;;5017162;28;20132;-73
2022/08/29 10:09:09;;;;;;;18.45;6.50;;;19.90;78.00;;;;;;5040298;28;20518;-72
2022/08/29 10:12:05;;;;;;;16.10;5.25;;;19.70;77.20;;;;;;4999048;28;20085;-72
2022/08/29 10:14:34;;;;;;;15.30;5.88;;;19.80;77.90;;;;;;5021323;28;20073;-73
2022/08/29 10:19:59;;;;;;;13.52;5.10;;;19.90;78.20;;;;;;5017352;28;20224;-73
2022/08/29 10:22:47;;;;;;;11.02;5.65;;;20.00;77.50;;;;;;5022708;28;20133;-73
2022/08/29 10:25:31;;;;;;;;;;;20.00;77.20;;;;;;5017577;28;20041;-73
2022/08/29 10:28:02;;;;;;;16.50;4.88;;;20.10;77.20;;;;;;5020196;28;20672;-73
2022/08/29 10:30:42;;;;;;;11.02;5.18;;;20.30;76.70;;;;;;5000924;28;20069;-73
2022/08/29 10:33:43;;;;;;;13.30;4.57;;;20.20;76.40;;;;;;5021962;28;20053;-73
2022/08/29 10:36:21;;;;;;;18.80;6.22;;;20.40;76.00;;;;;;5017441;28;20037;-68
2022/08/29 10:38:53;;;;;;;19.23;5.38;;;20.40;75.50;;;;;;5012763;28;20077;-68
2022/08/29 10:41:32;;;;;;;13.35;5.18;;;20.60;75.50;;;;;;5040765;28;20041;-68
2022/08/29 10:44:27;;;;;;;12.77;5.18;;;20.70;73.70;;;;;;4998162;28;20038;-68
2022/08/29 10:47:09;;;;;;;10.50;5.05;;;20.70;74.20;;;;;;5005398;28;20056;-68
2022/08/29 10:50:08;;;;;;;16.85;4.82;;;20.50;74.30;;;;;;4998830;28;20048;-68
2022/08/29 10:52:45;;;;;;;13.68;4.65;;;20.60;74.00;;;;;;4999932;28;20256;-68
2022/08/29 10:55:19;;;;;;;11.45;4.93;;;20.40;74.70;;;;;;5026640;28;20349;-68
2022/08/29 10:58:05;;;;;;;15.23;4.47;;;20.50;74.50;;;;;;4993997;28;20049;-70
2022/08/29 11:00:52;;;;;;;13.10;4.97;;;20.70;73.90;;;;;;5025086;28;20083;-70
2022/08/29 11:03:38;;;;;;;12.75;5.22;;;20.70;74.30;;;;;;5020568;28;20080;-68
2022/08/29 11:06:23;;;;;;;8.82;4.85;;;20.70;73.60;;;;;;4998171;28;20049;-70
2022/08/29 11:08:56;;;;;;;11.38;4.68;;;20.60;74.70;;;;;;5001513;28;20356;-67
2022/08/29 11:11:25;;;;;;;10.65;4.30;;;20.80;74.20;;;;;;5025519;28;20060;-67
2022/08/29 11:14:18;;;;;;;13.88;4.90;;;20.80;72.90;;;;;;5026170;28;20479;-68
2022/08/29 11:16:47;;;;;;;10.77;5.25;;;20.60;74.10;;;;;;5023895;28;20046;-68
2022/08/29 11:19:35;;;;;;;10.88;5.15;;;20.60;74.40;;;;;;4993627;28;20042;-68
2022/08/29 11:22:26;;;;;;;11.13;5.63;;;20.70;73.40;;;;;;5032717;28;20140;-67
2022/08/29 11:25:01;;;;;;;12.95;5.53;;;20.70;73.50;;;;;;5020089;28;20519;-68
2022/08/29 11:27:55;;;;;;;9.82;4.53;;;20.60;73.30;;;;;;5043605;28;20041;-68
2022/08/29 11:30:42;;;;;;;11.57;4.82;;;20.80;73.40;;;;;;5038736;28;20050;-68
2022/08/29 11:33:22;;;;;;;9.18;5.10;;;21.20;73.10;;;;;;5040079;28;20053;-68
2022/08/29 11:36:31;;;;;;;11.18;5.25;;;21.40;72.50;;;;;;5023926;28;20050;-69
2022/08/29 11:39:35;;;;;;;11.10;5.25;;;21.50;71.80;;;;;;4994480;28;20826;-67
2022/08/29 11:42:05;;;;;;;10.73;4.95;;;21.60;70.50;;;;;;4992766;28;20456;-68
2022/08/29 11:44:39;;;;;;;12.52;4.78;;;21.80;70.20;;;;;;5002121;28;20104;-68
2022/08/29 11:47:43;;;;;;;9.48;4.65;;;21.90;67.80;;;;;;4997087;28;20053;-68
2022/08/29 11:50:41;;;;;;;10.15;4.30;;;22.00;67.40;;;;;;5011331;28;20472;-68
2022/08/29 11:53:22;;;;;;;;;;;22.20;68.70;;;;;;5047525;28;20467;-68
2022/08/29 11:56:18;;;;;;;15.00;4.80;;;22.40;68.10;;;;;;5040639;28;19924;-66
2022/08/29 11:58:48;;;;;;;9.00;4.38;;;22.60;66.10;;;;;;5011283;28;20095;-67
2022/08/29 12:01:36;;;;;;;11.10;4.95;;;22.80;66.20;;;;;;5010558;28;20069;-67
2022/08/29 12:04:07;;;;;;;11.00;5.10;;;22.60;64.70;;;;;;5014390;28;20048;-68
2022/08/29 12:06:59;;;;;;;11.40;4.50;;;22.90;65.90;;;;;;5018098;28;20041;-68
2022/08/29 12:09:47;;;;;;;11.48;4.78;;;22.90;63.40;;;;;;5015191;28;20113;-68
2022/08/29 12:12:16;;;;;;;13.40;5.15;;;22.60;64.40;;;;;;5014770;28;20399;-68
2022/08/29 12:14:42;;;;;;;11.65;5.00;;;22.70;64.90;;;;;;4999109;28;20207;-68
2022/08/29 12:17:15;;;;;;;11.13;5.07;;;22.90;64.30;;;;;;5010299;28;20092;-67
2022/08/29 12:19:54;;;;;;;12.15;4.95;;;22.90;63.40;;;;;;5036315;28;20062;-68
2022/08/29 12:22:42;;;;;;;10.50;4.50;;;23.20;64.40;;;;;;5007934;28;20473;-67
2022/08/29 12:25:26;;;;;;;9.68;4.55;;;23.40;63.50;;;;;;5017366;28;20081;-68
2022/08/29 12:28:13;;;;;;;11.38;4.75;;;23.40;62.90;;;;;;5010217;28;20414;-68
2022/08/29 12:30:41;;;;;;;8.90;4.63;;;23.20;63.10;;;;;;5059080;28;20442;-68
2022/08/29 12:33:38;;;;;;;10.05;4.32;;;22.90;64.10;;;;;;5016000;28;20080;-68
2022/08/29 12:36:24;;;;;;;8.60;4.38;;;23.30;63.80;;;;;;5009112;28;20468;-67
2022/08/29 12:39:23;;;;;;;10.07;4.35;;;23.40;62.00;;;;;;5023813;28;20419;-69
2022/08/29 12:41:52;;;;;;;9.77;3.97;;;23.60;61.80;;;;;;5019708;28;20091;-69
2022/08/29 12:44:31;;;;;;;11.55;4.25;;;23.60;61.40;;;;;;5019975;28;20045;-67
2022/08/29 12:47:12;;;;;;;10.43;4.40;;;23.80;61.40;;;;;;5037902;28;20072;-67
2022/08/29 12:49:49;;;;;;;11.63;3.85;;;23.70;60.10;;;;;;5020130;28;20069;-67
2022/08/29 12:52:26;;;;;;;12.87;4.00;;;23.90;59.60;;;;;;4993888;28;20325;-68
2022/08/29 12:54:53;;;;;;;8.00;3.65;;;23.90;60.60;;;;;;5043426;28;20403;-67
2022/08/29 12:57:21;;;;;;;8.88;3.53;;;24.20;60.50;;;;;;5010436;28;20045;-68
2022/08/29 12:59:49;;;;;;;8.90;3.92;;;24.30;57.60;;;;;;5038179;28;20053;-67
2022/08/29 13:02:24;;;;;;;7.55;3.42;;;24.00;57.00;;;;;;5043437;28;20459;-68